M/V Michael Luhr — WDC2243 — position and weather

sailwx.info

Track history (hours):
 
Tides and Currents Weather Stations Pressure Air Temp Water Temp Dewpoint Dewpoint Depression Visibility Wind Speed Wind Dir Waves Ship Positions

M/V Michael Luhr

Owner: Luhr Bros., Inc, Cape Girardeau, MO. More information available from US FCC via Universal Licensing System and Coast Guard Vessel Documentation Center.

Last reported at 2018-Feb-07 01:31 UTC. Time now 2018-Feb-21 07:29 UTC.
Position N 32°36' W 091°09'.
Warning: this ship's position is 14 days out of date.

Length 53 m; draft 3 m.

Type: Towing. MMSI: 366989940.

Date/timePositionNaut miles runAvg speedWind from/ knotsBaromVisibWave heightAir tempDewpointWater temp
2018-Feb-07 01:31N 32°36' W 091°09'2 4.1
2018-Feb-07 01:00N 32°35' W 091°07'5 3.6
2018-Feb-06 23:38N 32°30' W 091°07'1 4.0
2018-Feb-06 23:30N 32°29' W 091°07'4 4.1
2018-Feb-06 22:31N 32°26' W 091°03'4 4.0
2018-Feb-06 21:30N 32°24' W 090°59'2 2.3
2018-Feb-06 20:30N 32°22' W 091°00'1 2.1
2018-Feb-06 20:01N 32°21' W 090°60'4 1.7
2018-Feb-06 17:30N 32°21' W 090°55'3 2.0
2018-Feb-06 16:00N 32°18' W 090°55'2 1.6
2018-Feb-06 15:00N 32°17' W 090°57'2 4.5
2018-Feb-06 14:30N 32°15' W 090°59'1 1.6
2018-Feb-06 14:00N 32°14' W 090°59'8 2.2
2018-Feb-06 10:30N 32°07' W 091°03'2 4.0
2018-Feb-06 09:59N 32°08' W 091°05'2 3.7
2018-Feb-06 09:30N 32°07' W 091°07'5 4.6
2018-Feb-06 08:31N 32°03' W 091°03'0 3.8
2018-Feb-06 08:30N 32°03' W 091°03'2 3.6
2018-Feb-06 08:00N 32°02' W 091°04'2 1.6
2018-Feb-06 06:57N 32°00' W 091°05'0 0.1
2018-Feb-06 06:28N 32°00' W 091°05'0 0.1
2018-Feb-06 06:00N 32°00' W 091°05'  
2018-Jan-31 10:03N 31°47' W 091°22'0 8.4
2018-Jan-31 10:00N 31°47' W 091°22'23 6.9
2018-Jan-31 06:40N 32°05' W 091°04'2 9.2
2018-Jan-31 06:26N 32°06' W 091°06'2 3.9
2018-Jan-31 06:00N 32°08' W 091°06'5 5.1
2018-Jan-31 05:07N 32°08' W 091°01'1 8.0
2018-Jan-31 05:00N 32°08' W 091°00'4 9.0
2018-Jan-31 04:30N 32°13' W 090°59'4 8.6
2018-Jan-31 04:01N 32°17' W 090°57'4 8.4
2018-Jan-31 03:30N 32°20' W 090°54'3 5.5
2018-Jan-31 03:01N 32°21' W 090°57'0 0.2
2018-Jan-31 02:31N 32°21' W 090°57'0 0.0
2018-Jan-31 02:00N 32°21' W 090°57'0 0.0
2018-Jan-31 01:27N 32°21' W 090°57'0 0.8
2018-Jan-31 01:00N 32°21' W 090°57'6 6.1
2018-Jan-31 00:01N 32°26' W 091°02'4 8.5
2018-Jan-30 23:30N 32°28' W 091°06'4 8.1
2018-Jan-30 23:00N 32°32' W 091°06'4 8.2
2018-Jan-30 22:30N 32°35' W 091°08'  
Track history (hours):
 
Tides and Currents Weather Stations Pressure Air Temp Water Temp Dewpoint Dewpoint Depression Visibility Wind Speed Wind Dir Waves Ship Positions

M/V Michael Luhr

Owner: Luhr Bros., Inc, Cape Girardeau, MO. More information available from US FCC via Universal Licensing System and Coast Guard Vessel Documentation Center.

Last reported at 2018-Feb-07 01:31 UTC. Time now 2018-Feb-21 07:29 UTC.
Position N 32°36' W 091°09'.
Warning: this ship's position is 14 days out of date.

Length 53 m; draft 3 m.

Type: Towing. MMSI: 366989940.

Date/timePositionNaut miles runAvg speedWind from/ knotsBaromVisibWave heightAir tempDewpointWater temp
2018-Feb-07 01:31N 32°36' W 091°09'2 4.1
2018-Feb-07 01:00N 32°35' W 091°07'5 3.6
2018-Feb-06 23:38N 32°30' W 091°07'1 4.0
2018-Feb-06 23:30N 32°29' W 091°07'4 4.1
2018-Feb-06 22:31N 32°26' W 091°03'4 4.0
2018-Feb-06 21:30N 32°24' W 090°59'2 2.3
2018-Feb-06 20:30N 32°22' W 091°00'1 2.1
2018-Feb-06 20:01N 32°21' W 090°60'4 1.7
2018-Feb-06 17:30N 32°21' W 090°55'3 2.0
2018-Feb-06 16:00N 32°18' W 090°55'2 1.6
2018-Feb-06 15:00N 32°17' W 090°57'2 4.5
2018-Feb-06 14:30N 32°15' W 090°59'1 1.6
2018-Feb-06 14:00N 32°14' W 090°59'8 2.2
2018-Feb-06 10:30N 32°07' W 091°03'2 4.0
2018-Feb-06 09:59N 32°08' W 091°05'2 3.7
2018-Feb-06 09:30N 32°07' W 091°07'5 4.6
2018-Feb-06 08:31N 32°03' W 091°03'0 3.8
2018-Feb-06 08:30N 32°03' W 091°03'2 3.6
2018-Feb-06 08:00N 32°02' W 091°04'2 1.6
2018-Feb-06 06:57N 32°00' W 091°05'0 0.1
2018-Feb-06 06:28N 32°00' W 091°05'0 0.1
2018-Feb-06 06:00N 32°00' W 091°05'  
2018-Jan-31 10:03N 31°47' W 091°22'0 8.4
2018-Jan-31 10:00N 31°47' W 091°22'23 6.9
2018-Jan-31 06:40N 32°05' W 091°04'2 9.2
2018-Jan-31 06:26N 32°06' W 091°06'2 3.9
2018-Jan-31 06:00N 32°08' W 091°06'5 5.1
2018-Jan-31 05:07N 32°08' W 091°01'1 8.0
2018-Jan-31 05:00N 32°08' W 091°00'4 9.0
2018-Jan-31 04:30N 32°13' W 090°59'4 8.6
2018-Jan-31 04:01N 32°17' W 090°57'4 8.4
2018-Jan-31 03:30N 32°20' W 090°54'3 5.5
2018-Jan-31 03:01N 32°21' W 090°57'0 0.2
2018-Jan-31 02:31N 32°21' W 090°57'0 0.0
2018-Jan-31 02:00N 32°21' W 090°57'0 0.0
2018-Jan-31 01:27N 32°21' W 090°57'0 0.8
2018-Jan-31 01:00N 32°21' W 090°57'6 6.1
2018-Jan-31 00:01N 32°26' W 091°02'4 8.5
2018-Jan-30 23:30N 32°28' W 091°06'4 8.1
2018-Jan-30 23:00N 32°32' W 091°06'4 8.2
2018-Jan-30 22:30N 32°35' W 091°08'  

Dump ship's entire track history